Time;durP1;ratioP1;P1;durP2;ratioP2;P2;SDS_P1;SDS_P2;PMS_P1;PMS_P2;Temp;Humidity;BMP_temperature;BMP_pressure;BME280_temperature;BME280_humidity;BME280_pressure;Samples;Min_cycle;Max_cycle;Signal;HPM_P1;HPM_P2
2023/08/23 00:01:36;;;;;;;0.00;0.00;;;18.20;84.60;;;;;;5039421;28;20049;-69
2023/08/23 00:04:02;;;;;;;0.00;0.00;;;18.20;84.40;;;;;;5044946;28;20086;-69
2023/08/23 00:06:27;;;;;;;0.00;0.00;;;18.10;84.20;;;;;;5046964;28;20175;-69
2023/08/23 00:08:53;;;;;;;0.00;0.00;;;18.10;84.00;;;;;;5029388;28;20064;-69
2023/08/23 00:11:18;;;;;;;0.00;0.00;;;18.00;84.00;;;;;;5029465;28;20049;-69
2023/08/23 00:13:45;;;;;;;0.30;0.30;;;18.00;83.90;;;;;;5028775;28;20048;-69
2023/08/23 00:16:10;;;;;;;0.00;0.00;;;17.90;83.70;;;;;;5029454;28;20045;-69
2023/08/23 00:18:36;;;;;;;0.00;0.00;;;17.90;83.70;;;;;;5028428;28;20037;-69
2023/08/23 00:21:01;;;;;;;0.00;0.00;;;17.90;83.70;;;;;;5028010;28;20045;-69
2023/08/23 00:23:27;;;;;;;0.00;0.00;;;17.90;83.60;;;;;;5028040;28;20041;-69
2023/08/23 00:25:53;;;;;;;0.00;0.00;;;17.80;83.60;;;;;;5028974;28;20514;-69
2023/08/23 00:28:19;;;;;;;0.00;0.00;;;17.80;83.80;;;;;;5030724;28;20056;-69
2023/08/23 00:31:03;;;;;;;0.00;0.00;;;17.80;83.90;;;;;;5035430;28;20445;-69
2023/08/23 00:33:28;;;;;;;0.00;0.00;;;17.70;83.80;;;;;;5041409;28;20052;-69
2023/08/23 00:35:54;;;;;;;0.00;0.00;;;17.80;83.80;;;;;;5047522;28;20489;-69
2023/08/23 00:38:19;;;;;;;0.00;0.00;;;17.70;83.70;;;;;;5045338;28;20060;-69
2023/08/23 00:40:45;;;;;;;0.00;0.00;;;17.80;83.80;;;;;;5026900;28;20456;-69
2023/08/23 00:43:11;;;;;;;0.00;0.00;;;17.80;83.90;;;;;;5028699;28;20207;-69
2023/08/23 00:45:39;;;;;;;0.00;0.00;;;17.80;83.70;;;;;;5027354;28;20056;-69
2023/08/23 00:48:06;;;;;;;0.00;0.00;;;17.80;83.60;;;;;;5036750;28;20045;-69
2023/08/23 00:50:32;;;;;;;0.00;0.00;;;17.70;83.50;;;;;;5046775;28;20060;-69
2023/08/23 00:52:59;;;;;;;0.00;0.00;;;17.70;83.40;;;;;;5032464;28;20060;-69
2023/08/23 00:55:24;;;;;;;0.00;0.00;;;17.60;83.40;;;;;;5028412;28;20510;-69
2023/08/23 00:57:53;;;;;;;0.00;0.00;;;17.60;83.50;;;;;;5037981;28;20049;-69
2023/08/23 01:00:19;;;;;;;0.00;0.00;;;17.60;83.50;;;;;;5031893;28;20053;-69
2023/08/23 01:02:45;;;;;;;0.00;0.00;;;17.50;83.60;;;;;;5038637;28;20390;-69
2023/08/23 01:05:11;;;;;;;0.00;0.00;;;17.50;83.60;;;;;;5050620;28;20047;-69
2023/08/23 01:07:59;;;;;;;0.00;0.00;;;17.50;83.60;;;;;;5044388;28;20139;-69
2023/08/23 01:10:30;;;;;;;0.00;0.00;;;17.60;83.70;;;;;;5032782;28;20060;-69
2023/08/23 01:13:20;;;;;;;0.00;0.00;;;17.60;84.00;;;;;;5036487;28;20043;-69
2023/08/23 01:15:46;;;;;;;0.00;0.00;;;17.50;84.50;;;;;;5049308;28;20109;-69
2023/08/23 01:18:13;;;;;;;0.00;0.00;;;17.60;84.50;;;;;;5043286;28;20055;-69
2023/08/23 01:20:39;;;;;;;0.00;0.00;;;17.60;84.50;;;;;;5043972;28;20116;-69
2023/08/23 01:23:15;;;;;;;0.00;0.00;;;17.50;84.50;;;;;;5050525;28;20052;-69
2023/08/23 01:25:48;;;;;;;0.00;0.00;;;17.50;84.80;;;;;;5048924;28;20068;-69
2023/08/23 01:28:14;;;;;;;0.00;0.00;;;17.60;85.00;;;;;;5051238;28;20397;-69
2023/08/23 01:30:40;;;;;;;0.00;0.00;;;17.60;85.10;;;;;;5050407;28;20045;-69
2023/08/23 01:33:27;;;;;;;0.00;0.00;;;17.50;84.80;;;;;;5043051;28;20044;-69
2023/08/23 01:36:38;;;;;;;0.00;0.00;;;17.30;84.70;;;;;;5049319;28;20140;-69
2023/08/23 01:39:04;;;;;;;0.00;0.00;;;17.20;84.50;;;;;;4986621;28;20506;-69
2023/08/23 01:41:30;;;;;;;0.00;0.00;;;17.20;84.10;;;;;;5030591;28;20049;-68
2023/08/23 01:43:57;;;;;;;0.00;0.00;;;17.10;84.00;;;;;;5034151;28;20482;-69
2023/08/23 01:46:22;;;;;;;0.00;0.00;;;17.10;83.90;;;;;;5050666;28;20128;-69
2023/08/23 01:48:48;;;;;;;0.00;0.00;;;17.10;83.80;;;;;;5039834;28;20037;-69
2023/08/23 01:51:13;;;;;;;0.00;0.00;;;17.00;83.80;;;;;;5030800;28;20111;-69
2023/08/23 01:53:39;;;;;;;0.00;0.00;;;17.10;83.80;;;;;;5034600;28;20060;-69
2023/08/23 01:56:04;;;;;;;0.00;0.00;;;17.00;84.10;;;;;;5030526;28;20042;-69
2023/08/23 01:58:30;;;;;;;0.00;0.00;;;17.00;84.30;;;;;;5030685;28;20528;-69
2023/08/23 02:00:58;;;;;;;0.00;0.00;;;17.00;84.30;;;;;;5032834;28;20050;-69
2023/08/23 02:03:23;;;;;;;0.00;0.00;;;17.00;84.30;;;;;;5032551;28;20141;-69
2023/08/23 02:05:49;;;;;;;0.00;0.00;;;17.00;84.20;;;;;;5030345;28;20132;-69
2023/08/23 02:08:15;;;;;;;0.00;0.00;;;17.00;84.10;;;;;;5028718;28;20409;-69
2023/08/23 02:10:41;;;;;;;0.00;0.00;;;16.90;84.00;;;;;;5030153;28;20045;-69
2023/08/23 02:13:07;;;;;;;0.00;0.00;;;16.80;84.20;;;;;;5041388;28;20045;-69
2023/08/23 02:15:33;;;;;;;0.00;0.00;;;16.80;84.70;;;;;;5049612;28;20424;-69
2023/08/23 02:17:59;;;;;;;0.00;0.00;;;16.90;84.80;;;;;;5043541;28;20045;-69
2023/08/23 02:20:24;;;;;;;0.00;0.00;;;16.90;84.90;;;;;;5029833;28;20064;-70
2023/08/23 02:22:50;;;;;;;0.00;0.00;;;17.00;85.00;;;;;;5033744;28;20451;-69
2023/08/23 02:25:15;;;;;;;0.00;0.00;;;17.00;85.00;;;;;;5029419;28;20140;-69
2023/08/23 02:27:41;;;;;;;0.00;0.00;;;17.00;85.10;;;;;;5030136;28;20053;-70
2023/08/23 02:30:07;;;;;;;0.00;0.00;;;17.10;85.20;;;;;;5034596;28;20045;-70
2023/08/23 02:32:34;;;;;;;0.00;0.00;;;17.10;85.20;;;;;;5029228;28;20041;-70
2023/08/23 02:35:00;;;;;;;0.00;0.00;;;17.10;85.50;;;;;;5029776;28;20051;-69
2023/08/23 02:37:25;;;;;;;0.10;0.10;;;17.10;85.80;;;;;;5030936;28;20490;-69
2023/08/23 02:39:51;;;;;;;0.00;0.00;;;17.20;86.50;;;;;;5031819;28;20104;-70
2023/08/23 02:42:17;;;;;;;0.35;0.28;;;17.20;86.50;;;;;;5029071;28;20321;-69
2023/08/23 02:44:42;;;;;;;0.00;0.00;;;17.30;86.60;;;;;;5033641;28;20041;-69
2023/08/23 02:47:08;;;;;;;0.00;0.00;;;17.20;86.60;;;;;;5030859;28;20045;-69
2023/08/23 02:49:33;;;;;;;0.00;0.00;;;17.20;86.60;;;;;;5036984;28;20045;-69
2023/08/23 02:51:59;;;;;;;0.00;0.00;;;17.20;86.50;;;;;;5030263;28;20136;-69
2023/08/23 02:54:24;;;;;;;0.00;0.00;;;17.20;86.50;;;;;;5037592;28;20045;-69
2023/08/23 02:56:50;;;;;;;0.00;0.00;;;17.20;86.50;;;;;;5045552;28;20571;-69
2023/08/23 02:59:15;;;;;;;0.00;0.00;;;17.30;86.60;;;;;;5041478;28;20060;-69
2023/08/23 03:01:41;;;;;;;0.00;0.00;;;17.20;86.50;;;;;;5038406;28;20434;-69
2023/08/23 03:04:07;;;;;;;0.00;0.00;;;17.30;86.40;;;;;;5030235;28;20045;-69
2023/08/23 03:06:32;;;;;;;0.00;0.00;;;17.30;86.40;;;;;;5041174;28;20041;-69
2023/08/23 03:08:58;;;;;;;0.00;0.00;;;17.30;86.30;;;;;;5044682;28;20103;-69
2023/08/23 03:11:23;;;;;;;0.00;0.00;;;17.30;86.40;;;;;;5034161;28;20459;-69
2023/08/23 03:13:49;;;;;;;0.00;0.00;;;17.30;86.20;;;;;;5030138;28;20045;-69
2023/08/23 03:16:14;;;;;;;0.00;0.00;;;17.30;86.30;;;;;;5030336;28;20164;-69
2023/08/23 03:18:40;;;;;;;0.00;0.00;;;17.30;86.40;;;;;;5029015;28;20509;-69
2023/08/23 03:21:05;;;;;;;0.00;0.00;;;17.30;86.40;;;;;;5040442;28;20420;-69
2023/08/23 03:23:31;;;;;;;0.00;0.00;;;17.30;86.40;;;;;;5049645;28;20175;-69
2023/08/23 03:25:57;;;;;;;0.00;0.00;;;17.40;86.70;;;;;;5047898;28;20052;-69
2023/08/23 03:28:22;;;;;;;0.00;0.00;;;17.40;86.70;;;;;;5048323;28;20041;-69
2023/08/23 03:30:48;;;;;;;0.00;0.00;;;17.40;86.50;;;;;;5031018;28;20276;-69
2023/08/23 03:33:13;;;;;;;0.00;0.00;;;17.40;86.70;;;;;;5028563;28;20056;-69
2023/08/23 03:35:39;;;;;;;0.00;0.00;;;17.40;86.70;;;;;;5028818;28;20068;-69
2023/08/23 03:38:05;;;;;;;0.00;0.00;;;17.40;86.60;;;;;;5042071;28;20072;-69
2023/08/23 03:40:35;;;;;;;0.00;0.00;;;17.40;86.60;;;;;;5028465;28;20508;-69
2023/08/23 03:43:01;;;;;;;0.00;0.00;;;17.40;86.50;;;;;;5049633;28;20217;-69
2023/08/23 03:45:26;;;;;;;0.00;0.00;;;17.40;86.50;;;;;;5047495;28;20075;-69
2023/08/23 03:47:52;;;;;;;0.00;0.00;;;17.40;86.50;;;;;;5046114;28;20179;-69
2023/08/23 03:50:18;;;;;;;0.00;0.00;;;17.40;86.40;;;;;;5035915;28;20053;-69
2023/08/23 03:52:43;;;;;;;0.00;0.00;;;17.40;86.40;;;;;;5029697;28;20049;-69
2023/08/23 03:55:09;;;;;;;0.00;0.00;;;17.40;86.30;;;;;;5037211;28;20467;-69
2023/08/23 03:57:34;;;;;;;0.03;0.03;;;17.50;86.30;;;;;;5048849;28;20049;-69
2023/08/23 04:00:01;;;;;;;0.00;0.00;;;17.40;86.30;;;;;;5038366;28;20136;-69
2023/08/23 04:02:27;;;;;;;0.00;0.00;;;17.40;86.30;;;;;;5032717;28;20152;-69
2023/08/23 04:04:52;;;;;;;0.00;0.00;;;17.40;86.40;;;;;;5028244;28;20045;-69
2023/08/23 04:07:18;;;;;;;0.00;0.00;;;17.40;86.50;;;;;;5027898;28;20516;-69
2023/08/23 04:09:43;;;;;;;0.00;0.00;;;17.40;86.50;;;;;;5029496;28;20517;-69
2023/08/23 04:12:09;;;;;;;0.00;0.00;;;17.30;86.50;;;;;;5043377;28;20041;-69
2023/08/23 04:14:35;;;;;;;0.00;0.00;;;17.30;86.40;;;;;;5048886;28;20545;-69
2023/08/23 04:17:02;;;;;;;0.00;0.00;;;17.40;86.30;;;;;;5030675;28;20136;-69
2023/08/23 04:19:27;;;;;;;0.00;0.00;;;17.30;86.30;;;;;;5044728;28;20045;-69
2023/08/23 04:21:53;;;;;;;0.00;0.00;;;17.30;86.20;;;;;;5047423;28;20041;-69
2023/08/23 04:24:19;;;;;;;0.00;0.00;;;17.30;86.10;;;;;;5047323;28;20084;-69
2023/08/23 04:26:45;;;;;;;0.00;0.00;;;17.30;86.10;;;;;;5048318;28;20041;-69
2023/08/23 04:29:10;;;;;;;0.00;0.00;;;17.30;85.90;;;;;;5045821;28;20037;-69
2023/08/23 04:31:36;;;;;;;0.00;0.00;;;17.30;86.00;;;;;;5046295;28;20049;-69
2023/08/23 04:34:04;;;;;;;0.00;0.00;;;17.30;86.00;;;;;;5046597;28;20382;-70
2023/08/23 04:36:42;;;;;;;0.00;0.00;;;17.30;86.00;;;;;;5045365;28;20128;-69
2023/08/23 04:39:19;;;;;;;0.00;0.00;;;17.30;86.00;;;;;;5042855;28;20057;-69
2023/08/23 04:42:00;;;;;;;0.03;0.03;;;17.30;86.00;;;;;;5045073;28;20060;-69
2023/08/23 04:44:35;;;;;;;0.00;0.00;;;17.20;86.10;;;;;;5048099;28;20418;-69
2023/08/23 04:47:03;;;;;;;0.00;0.00;;;17.30;86.20;;;;;;5044593;28;20474;-69
2023/08/23 04:49:29;;;;;;;0.00;0.00;;;17.30;86.30;;;;;;5047265;28;20045;-69
2023/08/23 04:51:58;;;;;;;0.00;0.00;;;17.20;86.40;;;;;;5045951;28;20401;-68
2023/08/23 04:54:23;;;;;;;0.00;0.00;;;17.20;86.30;;;;;;5046884;28;20041;-69
2023/08/23 04:56:49;;;;;;;0.00;0.00;;;17.20;86.10;;;;;;5033079;28;20378;-69
2023/08/23 04:59:27;;;;;;;0.00;0.00;;;17.10;86.20;;;;;;5026700;28;20053;-68
2023/08/23 05:01:53;;;;;;;0.00;0.00;;;17.10;86.20;;;;;;5033237;28;20049;-69
2023/08/23 05:04:34;;;;;;;0.00;0.00;;;17.10;86.20;;;;;;5027592;28;20045;-69
2023/08/23 05:07:02;;;;;;;0.00;0.00;;;17.10;86.30;;;;;;5038621;28;20382;-69
2023/08/23 05:09:29;;;;;;;0.00;0.00;;;17.10;86.20;;;;;;5029600;28;20132;-69
2023/08/23 05:11:54;;;;;;;0.00;0.00;;;17.10;86.20;;;;;;5036773;28;20052;-69
2023/08/23 05:14:23;;;;;;;0.00;0.00;;;17.10;86.20;;;;;;5033478;28;20037;-69
2023/08/23 05:16:51;;;;;;;0.00;0.00;;;17.10;86.20;;;;;;5036260;28;20052;-69
2023/08/23 05:19:17;;;;;;;0.00;0.00;;;17.00;86.20;;;;;;5026787;28;20224;-69
2023/08/23 05:21:42;;;;;;;0.00;0.00;;;17.10;86.10;;;;;;5029375;28;20179;-69
2023/08/23 05:24:11;;;;;;;0.00;0.00;;;17.00;86.10;;;;;;5031348;28;20060;-68
2023/08/23 05:26:36;;;;;;;0.00;0.00;;;17.10;86.20;;;;;;5032105;28;20037;-69
2023/08/23 05:29:08;;;;;;;0.00;0.00;;;17.10;86.10;;;;;;5028904;28;20591;-69
2023/08/23 05:31:36;;;;;;;0.00;0.00;;;17.10;86.10;;;;;;5032385;28;20069;-69
2023/08/23 05:34:05;;;;;;;0.00;0.00;;;17.10;86.20;;;;;;5034084;28;20045;-69
2023/08/23 05:36:36;;;;;;;0.00;0.00;;;17.10;86.30;;;;;;5029410;28;20049;-69
2023/08/23 05:39:04;;;;;;;0.00;0.00;;;17.10;86.40;;;;;;5030033;28;20428;-69
2023/08/23 05:41:35;;;;;;;0.00;0.00;;;17.20;86.40;;;;;;5027424;28;20485;-69
2023/08/23 05:44:01;;;;;;;0.00;0.00;;;17.30;86.60;;;;;;5033471;28;20087;-68
2023/08/23 05:46:32;;;;;;;0.00;0.00;;;17.20;86.70;;;;;;5031883;28;20057;-68
2023/08/23 05:49:04;;;;;;;;;;;17.30;86.80;;;;;;5031865;28;20061;-69
2023/08/23 05:51:35;;;;;;;0.00;0.00;;;17.40;86.90;;;;;;5040826;28;20008;-68
2023/08/23 05:54:31;;;;;;;0.00;0.00;;;17.40;86.90;;;;;;5044071;28;20179;-70
2023/08/23 05:56:59;;;;;;;0.00;0.00;;;17.50;87.00;;;;;;4997918;28;20060;-70
2023/08/23 05:59:28;;;;;;;0.00;0.00;;;17.50;87.20;;;;;;5030498;28;20049;-69
2023/08/23 06:01:57;;;;;;;0.00;0.00;;;17.60;87.30;;;;;;5043285;28;20075;-70
2023/08/23 06:04:22;;;;;;;0.00;0.00;;;17.60;87.50;;;;;;5033512;28;20049;-70
2023/08/23 06:06:51;;;;;;;0.00;0.00;;;17.60;87.50;;;;;;5031326;28;20053;-70
2023/08/23 06:09:19;;;;;;;0.00;0.00;;;17.80;87.50;;;;;;5031856;28;20049;-70
2023/08/23 06:11:56;;;;;;;0.00;0.00;;;17.90;87.60;;;;;;5017774;28;20042;-70
2023/08/23 06:14:24;;;;;;;0.00;0.00;;;18.00;87.60;;;;;;5034188;28;20425;-69
2023/08/23 06:16:50;;;;;;;0.00;0.00;;;18.00;87.60;;;;;;5036786;28;20068;-69
2023/08/23 06:19:25;;;;;;;0.00;0.00;;;18.10;88.00;;;;;;5032804;28;20045;-69
2023/08/23 06:21:51;;;;;;;0.00;0.00;;;18.20;87.90;;;;;;5031695;28;20053;-69
2023/08/23 06:24:19;;;;;;;0.00;0.00;;;18.20;87.80;;;;;;5030768;28;20055;-69
2023/08/23 06:26:46;;;;;;;0.00;0.00;;;18.30;87.80;;;;;;5032911;28;20057;-69
2023/08/23 06:29:24;;;;;;;0.00;0.00;;;18.30;87.80;;;;;;5018986;28;20136;-69
2023/08/23 06:31:49;;;;;;;0.00;0.00;;;18.30;87.70;;;;;;5032255;28;20073;-69
2023/08/23 06:34:15;;;;;;;0.00;0.00;;;18.40;87.80;;;;;;5017708;28;20537;-69
2023/08/23 06:36:40;;;;;;;0.00;0.00;;;18.50;88.00;;;;;;5035780;28;20132;-69
2023/08/23 06:39:06;;;;;;;0.00;0.00;;;18.50;88.20;;;;;;5035653;28;20060;-69
2023/08/23 06:41:32;;;;;;;0.00;0.00;;;18.50;88.30;;;;;;5034371;28;20053;-69
2023/08/23 06:44:01;;;;;;;0.00;0.00;;;18.50;88.40;;;;;;5034921;28;20315;-67
2023/08/23 06:46:28;;;;;;;0.00;0.00;;;18.60;87.90;;;;;;5042607;28;20052;-71
2023/08/23 06:48:57;;;;;;;0.00;0.00;;;18.60;87.90;;;;;;5037497;28;20045;-73
2023/08/23 06:51:23;;;;;;;0.00;0.00;;;18.70;88.30;;;;;;5036801;28;20098;-71
2023/08/23 06:53:51;;;;;;;0.00;0.00;;;18.80;88.20;;;;;;5043887;28;20460;-72
2023/08/23 06:56:16;;;;;;;0.00;0.00;;;18.90;88.40;;;;;;5049193;28;20120;-72
2023/08/23 06:58:42;;;;;;;0.00;0.00;;;19.00;88.40;;;;;;5045809;28;20581;-75
2023/08/23 07:01:14;;;;;;;0.10;0.10;;;19.00;88.30;;;;;;5043872;28;20428;-72
2023/08/23 07:03:41;;;;;;;0.00;0.00;;;19.10;88.60;;;;;;5039198;28;20045;-72
2023/08/23 07:06:06;;;;;;;0.00;0.00;;;19.10;88.50;;;;;;5035876;28;20049;-69
2023/08/23 07:08:32;;;;;;;0.10;0.10;;;19.20;88.50;;;;;;5035159;28;20532;-69
2023/08/23 07:10:58;;;;;;;0.00;0.00;;;19.20;88.30;;;;;;5034132;28;20406;-69
2023/08/23 07:13:23;;;;;;;0.00;0.00;;;19.30;88.40;;;;;;5036829;28;20452;-68
2023/08/23 07:15:49;;;;;;;0.10;0.10;;;19.30;88.40;;;;;;5008947;28;20103;-70
2023/08/23 07:18:15;;;;;;;0.00;0.00;;;19.50;88.30;;;;;;5035006;28;20111;-68
2023/08/23 07:20:40;;;;;;;0.00;0.00;;;19.50;88.40;;;;;;5041300;28;20068;-68
2023/08/23 07:23:06;;;;;;;0.10;0.10;;;19.40;88.50;;;;;;5038934;28;20963;-69
2023/08/23 07:25:31;;;;;;;0.10;0.10;;;19.50;88.90;;;;;;5044241;28;20568;-69
2023/08/23 07:27:57;;;;;;;0.00;0.00;;;19.50;88.90;;;;;;5042840;28;20049;-70
2023/08/23 07:30:23;;;;;;;1.65;0.85;;;19.60;88.80;;;;;;5040242;28;20041;-71
2023/08/23 07:32:48;;;;;;;0.00;0.00;;;19.60;88.60;;;;;;5041357;28;20103;-69
2023/08/23 07:35:14;;;;;;;0.00;0.00;;;19.60;88.40;;;;;;5041443;28;20037;-71
2023/08/23 07:37:39;;;;;;;0.00;0.00;;;19.70;88.40;;;;;;5041696;28;20048;-70
2023/08/23 07:40:09;;;;;;;0.00;0.00;;;19.80;88.00;;;;;;5024298;28;20477;-69
2023/08/23 07:42:35;;;;;;;0.00;0.00;;;19.80;87.50;;;;;;5042214;28;20539;-69
2023/08/23 07:45:01;;;;;;;0.10;0.10;;;19.80;87.20;;;;;;5035388;28;20045;-69
2023/08/23 07:47:26;;;;;;;0.30;0.30;;;19.90;86.90;;;;;;5031948;28;20496;-69
2023/08/23 07:49:52;;;;;;;0.00;0.00;;;19.90;86.90;;;;;;5032493;28;20500;-69
2023/08/23 07:52:21;;;;;;;0.00;0.00;;;20.00;87.00;;;;;;5038276;28;20607;-69
2023/08/23 07:54:56;;;;;;;0.10;0.10;;;20.10;86.50;;;;;;5032734;28;20095;-68
2023/08/23 07:57:21;;;;;;;0.25;0.25;;;20.10;86.30;;;;;;5030697;28;20057;-69
2023/08/23 07:59:47;;;;;;;0.00;0.00;;;20.10;86.20;;;;;;5039044;28;20047;-69
2023/08/23 08:02:13;;;;;;;0.10;0.10;;;20.10;85.90;;;;;;5029622;28;20111;-70
2023/08/23 08:04:38;;;;;;;0.00;0.00;;;20.10;85.60;;;;;;5041269;28;20465;-69
2023/08/23 08:07:04;;;;;;;0.00;0.00;;;20.20;85.50;;;;;;5032401;28;20474;-69
2023/08/23 08:09:31;;;;;;;0.00;0.00;;;20.20;85.80;;;;;;5028689;28;20595;-69
2023/08/23 08:11:56;;;;;;;0.10;0.10;;;20.30;85.70;;;;;;5035612;28;20403;-69
2023/08/23 08:14:28;;;;;;;0.00;0.00;;;20.30;85.70;;;;;;5036412;28;20060;-73
2023/08/23 08:16:56;;;;;;;0.13;0.08;;;20.30;85.50;;;;;;5043009;28;20077;-69
2023/08/23 08:19:22;;;;;;;0.00;0.00;;;20.40;85.00;;;;;;5034904;28;20055;-69
2023/08/23 08:21:47;;;;;;;0.00;0.00;;;20.50;85.30;;;;;;5048803;28;20041;-70
2023/08/23 08:24:13;;;;;;;0.00;0.00;;;20.60;85.30;;;;;;5048738;28;20041;-69
2023/08/23 08:26:38;;;;;;;0.22;0.20;;;20.70;85.00;;;;;;5049068;28;20053;-71
2023/08/23 08:29:04;;;;;;;0.00;0.00;;;20.80;85.10;;;;;;5047610;28;20405;-69
2023/08/23 08:31:30;;;;;;;0.00;0.00;;;21.00;84.70;;;;;;5047929;28;20052;-68
2023/08/23 08:33:57;;;;;;;1.48;0.30;;;21.00;84.30;;;;;;5049020;28;20041;-69
2023/08/23 08:36:23;;;;;;;0.00;0.00;;;21.00;83.70;;;;;;5047441;28;20540;-68
2023/08/23 08:38:48;;;;;;;0.00;0.00;;;21.00;83.80;;;;;;5047286;28;20049;-69
2023/08/23 08:41:15;;;;;;;0.00;0.00;;;21.00;83.50;;;;;;5048936;28;20470;-68
2023/08/23 08:43:40;;;;;;;0.00;0.00;;;21.00;83.50;;;;;;5047150;28;20055;-69
2023/08/23 08:46:06;;;;;;;0.00;0.00;;;21.10;83.40;;;;;;5048714;28;20045;-69
2023/08/23 08:48:32;;;;;;;0.00;0.00;;;21.10;83.20;;;;;;5048779;28;20041;-69
2023/08/23 08:51:00;;;;;;;0.00;0.00;;;21.10;83.00;;;;;;5048861;28;20099;-68
2023/08/23 08:53:26;;;;;;;0.00;0.00;;;21.20;82.80;;;;;;5048633;28;20049;-68
2023/08/23 08:55:52;;;;;;;0.00;0.00;;;21.20;83.00;;;;;;5046981;28;20098;-68
2023/08/23 08:58:21;;;;;;;0.00;0.00;;;21.30;82.90;;;;;;5048632;28;20048;-69
2023/08/23 09:00:54;;;;;;;0.00;0.00;;;21.30;82.50;;;;;;5048857;28;20049;-69
2023/08/23 09:03:19;;;;;;;0.00;0.00;;;21.30;81.70;;;;;;5047389;28;20412;-69
2023/08/23 09:05:48;;;;;;;0.00;0.00;;;21.30;81.90;;;;;;5042522;28;20038;-64
2023/08/23 09:08:15;;;;;;;0.00;0.00;;;21.40;81.60;;;;;;5041599;28;20347;-68
2023/08/23 09:10:40;;;;;;;0.17;0.17;;;21.50;81.70;;;;;;5029677;28;20056;-68
2023/08/23 09:13:06;;;;;;;0.00;0.00;;;21.50;81.60;;;;;;5012532;28;20457;-68
2023/08/23 09:15:32;;;;;;;0.00;0.00;;;21.50;81.20;;;;;;5031443;28;20037;-69
2023/08/23 09:17:59;;;;;;;0.30;0.30;;;21.60;80.90;;;;;;5035263;28;20183;-69
2023/08/23 09:20:25;;;;;;;0.10;0.10;;;21.60;81.10;;;;;;5035920;28;20056;-69
2023/08/23 09:22:55;;;;;;;0.30;0.30;;;21.70;80.90;;;;;;5031796;28;20132;-69
2023/08/23 09:25:22;;;;;;;0.00;0.00;;;21.80;80.20;;;;;;5039472;28;20057;-68
2023/08/23 09:27:48;;;;;;;0.00;0.00;;;21.90;80.60;;;;;;5031712;28;20512;-69
2023/08/23 09:30:13;;;;;;;0.00;0.00;;;22.00;79.80;;;;;;5032177;28;20038;-69
2023/08/23 09:32:41;;;;;;;0.05;0.05;;;22.00;79.20;;;;;;5033206;28;20155;-68
2023/08/23 09:35:14;;;;;;;0.00;0.00;;;22.10;79.00;;;;;;5033629;28;21124;-68
2023/08/23 09:37:44;;;;;;;0.00;0.00;;;22.20;79.00;;;;;;5042857;28;20421;-69
2023/08/23 09:40:24;;;;;;;0.00;0.00;;;22.30;79.40;;;;;;5046150;28;20049;-68
2023/08/23 09:42:51;;;;;;;0.03;0.03;;;22.40;78.50;;;;;;5046308;28;20108;-69
2023/08/23 09:45:22;;;;;;;0.00;0.00;;;22.50;78.00;;;;;;5045445;28;20085;-69
2023/08/23 09:47:58;;;;;;;0.00;0.00;;;22.60;78.00;;;;;;5049438;28;20397;-69
2023/08/23 09:50:25;;;;;;;0.00;0.00;;;22.70;78.20;;;;;;5048260;28;20045;-69
2023/08/23 09:52:57;;;;;;;0.00;0.00;;;22.80;78.30;;;;;;5049153;28;20428;-68
2023/08/23 09:55:24;;;;;;;0.00;0.00;;;22.90;76.40;;;;;;5049254;28;20049;-68
2023/08/23 09:57:52;;;;;;;0.00;0.00;;;23.00;76.70;;;;;;5048290;28;20486;-74
2023/08/23 10:00:21;;;;;;;0.10;0.10;;;23.00;77.10;;;;;;5047863;28;20068;-66
2023/08/23 10:02:47;;;;;;;0.00;0.00;;;23.10;76.50;;;;;;5049271;28;20056;-68
2023/08/23 10:05:13;;;;;;;0.00;0.00;;;23.10;74.90;;;;;;5030215;28;20481;-69
2023/08/23 10:07:42;;;;;;;0.00;0.00;;;23.10;75.30;;;;;;5049604;28;20033;-69
2023/08/23 10:10:09;;;;;;;0.00;0.00;;;23.20;74.60;;;;;;5046724;28;20044;-69
2023/08/23 10:12:44;;;;;;;0.00;0.00;;;23.30;75.30;;;;;;5049002;28;20363;-68
2023/08/23 10:15:12;;;;;;;0.00;0.00;;;23.40;70.80;;;;;;5049538;28;20041;-69
2023/08/23 10:17:39;;;;;;;0.43;0.17;;;23.50;72.50;;;;;;5047926;28;20048;-69
2023/08/23 10:20:08;;;;;;;0.00;0.00;;;23.40;71.50;;;;;;5047067;28;20051;-68
2023/08/23 10:22:34;;;;;;;0.00;0.00;;;23.20;69.50;;;;;;5047090;28;20045;-70
2023/08/23 10:25:00;;;;;;;0.00;0.00;;;23.10;68.90;;;;;;5042878;28;20485;-69
2023/08/23 10:27:25;;;;;;;0.00;0.00;;;23.00;70.80;;;;;;5039567;28;20045;-68
2023/08/23 10:29:51;;;;;;;0.00;0.00;;;22.80;70.20;;;;;;5042372;28;20489;-69
2023/08/23 10:32:17;;;;;;;0.00;0.00;;;22.70;69.90;;;;;;5044706;28;20409;-67
2023/08/23 10:34:43;;;;;;;0.05;0.05;;;22.80;72.00;;;;;;5044561;28;20037;-70
2023/08/23 10:37:20;;;;;;;0.00;0.00;;;22.70;71.10;;;;;;5043309;28;20056;-70
2023/08/23 10:39:54;;;;;;;0.00;0.00;;;22.70;71.60;;;;;;5043393;28;20111;-70
2023/08/23 10:42:21;;;;;;;0.00;0.00;;;22.60;71.30;;;;;;5042315;28;20106;-72
2023/08/23 10:44:54;;;;;;;0.00;0.00;;;22.60;71.20;;;;;;5042638;28;20040;-72
2023/08/23 10:47:20;;;;;;;0.00;0.00;;;22.60;71.40;;;;;;5044679;28;20060;-72
2023/08/23 10:49:46;;;;;;;0.10;0.10;;;22.70;71.50;;;;;;5045603;28;20377;-72
2023/08/23 10:52:12;;;;;;;0.00;0.00;;;22.70;71.20;;;;;;5043637;28;20053;-72
2023/08/23 10:54:39;;;;;;;0.00;0.00;;;22.90;70.50;;;;;;5044964;28;20563;-73
2023/08/23 10:57:04;;;;;;;0.30;0.25;;;23.00;69.90;;;;;;5042674;28;20591;-72
2023/08/23 10:59:30;;;;;;;0.00;0.00;;;23.20;72.10;;;;;;5043766;28;20041;-73
2023/08/23 11:01:56;;;;;;;0.00;0.00;;;23.30;69.40;;;;;;5041578;28;21150;-71
2023/08/23 11:04:23;;;;;;;0.00;0.00;;;23.50;70.50;;;;;;5042730;28;20158;-71
2023/08/23 11:06:49;;;;;;;0.00;0.00;;;23.60;70.10;;;;;;5042417;28;20049;-71
2023/08/23 11:09:18;;;;;;;0.00;0.00;;;23.80;70.20;;;;;;5042901;28;20710;-71
2023/08/23 11:11:44;;;;;;;0.00;0.00;;;23.90;69.20;;;;;;5042669;28;20064;-71
2023/08/23 11:14:09;;;;;;;0.00;0.00;;;23.90;67.60;;;;;;5042304;28;20037;-71
2023/08/23 11:16:41;;;;;;;0.00;0.00;;;24.00;70.00;;;;;;5041345;28;20053;-71
2023/08/23 11:19:07;;;;;;;0.00;0.00;;;24.10;68.10;;;;;;5043281;28;20569;-71
2023/08/23 11:21:33;;;;;;;0.00;0.00;;;24.20;67.80;;;;;;5043376;28;20070;-72
2023/08/23 11:24:05;;;;;;;0.00;0.00;;;24.10;64.80;;;;;;5042834;28;20052;-72
2023/08/23 11:26:37;;;;;;;0.40;0.40;;;24.20;62.80;;;;;;5042644;28;20513;-72
2023/08/23 11:29:04;;;;;;;0.00;0.00;;;24.30;64.50;;;;;;5025876;28;20132;-72
2023/08/23 11:31:32;;;;;;;0.00;0.00;;;24.30;64.10;;;;;;5023965;28;20057;-72
2023/08/23 11:34:05;;;;;;;0.00;0.00;;;24.40;66.10;;;;;;5040611;28;20052;-72
2023/08/23 11:36:31;;;;;;;0.00;0.00;;;24.40;64.70;;;;;;5041764;28;20061;-72
2023/08/23 11:39:02;;;;;;;0.00;0.00;;;24.50;65.60;;;;;;5043823;28;20057;-71
2023/08/23 11:41:33;;;;;;;0.00;0.00;;;24.50;64.30;;;;;;5042564;28;20068;-71
2023/08/23 11:44:06;;;;;;;0.00;0.00;;;24.30;60.70;;;;;;5038672;28;20065;-72
2023/08/23 11:46:34;;;;;;;0.00;0.00;;;24.00;60.90;;;;;;5041291;28;20757;-72
2023/08/23 11:49:03;;;;;;;0.00;0.00;;;24.00;62.50;;;;;;5043598;28;20175;-71
2023/08/23 11:51:40;;;;;;;0.00;0.00;;;24.00;62.40;;;;;;5041883;28;21026;-72
2023/08/23 11:54:06;;;;;;;0.52;0.52;;;23.80;62.40;;;;;;5040415;28;20052;-72
2023/08/23 11:56:33;;;;;;;0.00;0.00;;;23.80;64.30;;;;;;5044096;28;20482;-72
2023/08/23 11:58:59;;;;;;;0.00;0.00;;;23.60;62.40;;;;;;5042835;28;20412;-72
2023/08/23 12:01:25;;;;;;;0.00;0.00;;;23.50;63.60;;;;;;5041218;28;20051;-72
2023/08/23 12:03:51;;;;;;;0.00;0.00;;;23.50;64.20;;;;;;5040206;28;20056;-72
2023/08/23 12:06:17;;;;;;;0.00;0.00;;;23.40;64.30;;;;;;5038187;28;20524;-72
2023/08/23 12:08:42;;;;;;;0.80;0.80;;;23.30;64.80;;;;;;5043162;28;20140;-70
2023/08/23 12:11:08;;;;;;;0.08;0.08;;;23.30;64.00;;;;;;5026802;28;20138;-69
2023/08/23 12:13:35;;;;;;;0.00;0.00;;;23.40;64.00;;;;;;5046521;28;20294;-69
2023/08/23 12:16:01;;;;;;;0.00;0.00;;;23.50;64.40;;;;;;5045734;28;20598;-69
2023/08/23 12:18:27;;;;;;;0.63;0.63;;;23.70;64.70;;;;;;5046617;28;20045;-70
2023/08/23 12:20:53;;;;;;;0.00;0.00;;;23.90;64.70;;;;;;5046175;28;20056;-70
2023/08/23 12:23:19;;;;;;;0.00;0.00;;;24.10;63.60;;;;;;5046950;28;20481;-69
2023/08/23 12:25:44;;;;;;;0.00;0.00;;;24.30;65.10;;;;;;5046201;28;20477;-69
2023/08/23 12:28:10;;;;;;;0.00;0.00;;;24.50;64.50;;;;;;5046376;28;20067;-70
2023/08/23 12:30:35;;;;;;;0.00;0.00;;;24.60;64.40;;;;;;5044741;28;20126;-70
2023/08/23 12:33:01;;;;;;;0.00;0.00;;;24.40;63.00;;;;;;5041301;28;20037;-70
2023/08/23 12:35:26;;;;;;;0.00;0.00;;;24.20;62.40;;;;;;5045883;28;20037;-69
2023/08/23 12:37:52;;;;;;;0.00;0.00;;;24.10;64.30;;;;;;5046802;28;20080;-70
2023/08/23 12:40:17;;;;;;;0.00;0.00;;;24.20;64.50;;;;;;5045407;28;20045;-70
2023/08/23 12:42:43;;;;;;;0.00;0.00;;;24.30;62.90;;;;;;5045722;28;20654;-70
2023/08/23 12:45:09;;;;;;;0.10;0.10;;;24.30;63.00;;;;;;5044031;28;20045;-69
2023/08/23 12:47:35;;;;;;;0.00;0.00;;;24.40;63.30;;;;;;5043904;28;20103;-69
2023/08/23 12:50:00;;;;;;;0.00;0.00;;;24.50;64.50;;;;;;5045655;28;20043;-69